Time;durP1;ratioP1;P1;durP2;ratioP2;P2;SDS_P1;SDS_P2;PMS_P1;PMS_P2;Temp;Humidity;BMP_temperature;BMP_pressure;BME280_temperature;BME280_humidity;BME280_pressure;Samples;Min_cycle;Max_cycle;Signal;HPM_P1;HPM_P2
2023/04/13 00:00:45;;;;;;;0.68;0.68;;;;;;;;;;5013150;28;20034;-83
2023/04/13 00:03:11;;;;;;;0.60;0.60;;;;;;;;;;5022993;28;20029;-82
2023/04/13 00:05:40;;;;;;;1.08;0.90;;;;;;;;;;5020744;28;20026;-82
2023/04/13 00:08:06;;;;;;;0.70;0.70;;;;;;;;;;5014760;28;20072;-84
2023/04/13 00:10:35;;;;;;;0.85;0.75;;;;;;;;;;5010816;28;20036;-83
2023/04/13 00:13:01;;;;;;;0.68;0.68;;;;;;;;;;5014387;28;20031;-83
2023/04/13 00:15:26;;;;;;;0.75;0.65;;;;;;;;;;5012106;28;20152;-84
2023/04/13 00:17:52;;;;;;;0.47;0.47;;;;;;;;;;5013383;28;20050;-84
2023/04/13 00:20:18;;;;;;;0.50;0.50;;;;;;;;;;5011897;28;20577;-84
2023/04/13 00:22:45;;;;;;;2.38;0.60;;;;;;;;;;5006591;28;20061;-84
2023/04/13 00:25:13;;;;;;;0.88;0.70;;;;;;;;;;5018705;28;20393;-83
2023/04/13 00:27:39;;;;;;;0.60;0.60;;;;;;;;;;5017156;28;20049;-83
2023/04/13 00:30:09;;;;;;;0.80;0.73;;;;;;;;;;5018658;28;20033;-82
2023/04/13 00:32:35;;;;;;;0.60;0.60;;;;;;;;;;5014357;28;20041;-83
2023/04/13 00:35:00;;;;;;;0.98;0.70;;;;;;;;;;5016656;28;20040;-84
2023/04/13 00:37:28;;;;;;;0.50;0.50;;;;;;;;;;5023503;28;20030;-82
2023/04/13 00:39:54;;;;;;;1.38;0.50;;;;;;;;;;5043674;28;20025;-84
2023/04/13 00:42:19;;;;;;;1.00;0.50;;;;;;;;;;5017268;28;20034;-82
2023/04/13 00:44:44;;;;;;;1.42;0.65;;;;;;;;;;5006518;28;20029;-83
2023/04/13 00:47:11;;;;;;;0.60;0.60;;;;;;;;;;5019206;28;20033;-82
2023/04/13 00:49:37;;;;;;;0.50;0.50;;;;;;;;;;5017202;28;20124;-84
2023/04/13 00:52:04;;;;;;;0.35;0.35;;;;;;;;;;5033488;28;20056;-83
2023/04/13 00:54:31;;;;;;;0.68;0.68;;;;;;;;;;5020121;28;20029;-86
2023/04/13 00:56:58;;;;;;;1.05;0.50;;;;;;;;;;5021952;28;20022;-84
2023/04/13 00:59:29;;;;;;;0.63;0.63;;;;;;;;;;5021532;28;20029;-83
2023/04/13 01:01:57;;;;;;;0.88;0.55;;;;;;;;;;5021688;28;20026;-84
2023/04/13 01:04:29;;;;;;;0.50;0.50;;;;;;;;;;5016074;28;20095;-84
2023/04/13 01:07:23;;;;;;;7.03;0.90;;;;;;;;;;5017788;28;20033;-84
2023/04/13 01:10:19;;;;;;;0.85;0.80;;;;;;;;;;5012130;28;20038;-83
2023/04/13 01:13:02;;;;;;;0.60;0.60;;;;;;;;;;5016675;28;20030;-84
2023/04/13 01:15:31;;;;;;;1.63;0.55;;;;;;;;;;5016518;28;20513;-83
2023/04/13 01:18:03;;;;;;;0.50;0.50;;;;;;;;;;5016239;28;20034;-83
2023/04/13 01:20:31;;;;;;;0.50;0.50;;;;;;;;;;5013029;28;20029;-84
2023/04/13 01:22:58;;;;;;;0.60;0.60;;;;;;;;;;5017406;28;20029;-84
2023/04/13 01:25:49;;;;;;;0.50;0.50;;;;;;;;;;5015804;28;20034;-83
2023/04/13 01:28:15;;;;;;;0.63;0.50;;;;;;;;;;5011098;28;20026;-83
2023/04/13 01:30:43;;;;;;;0.40;0.40;;;;;;;;;;5008293;28;20030;-83
2023/04/13 01:33:10;;;;;;;0.40;0.40;;;;;;;;;;5020509;28;20025;-85
2023/04/13 01:35:37;;;;;;;2.92;0.60;;;;;;;;;;5006427;28;20040;-85
2023/04/13 01:38:05;;;;;;;0.75;0.60;;;;;;;;;;5016336;28;20058;-85
2023/04/13 01:40:35;;;;;;;1.38;0.70;;;;;;;;;;5016974;28;20060;-83
2023/04/13 01:43:02;;;;;;;1.33;0.60;;;;;;;;;;5015450;28;20040;-84
2023/04/13 01:45:33;;;;;;;2.90;0.50;;;;;;;;;;5015193;28;20033;-84
2023/04/13 01:48:17;;;;;;;0.85;0.68;;;;;;;;;;5016118;28;20090;-84
2023/04/13 01:50:47;;;;;;;0.60;0.60;;;;;;;;;;5020813;28;20036;-84
2023/04/13 01:53:18;;;;;;;0.82;0.45;;;;;;;;;;5014868;28;20026;-83
2023/04/13 01:55:45;;;;;;;0.60;0.60;;;;;;;;;;5016024;28;20033;-84
2023/04/13 01:58:12;;;;;;;0.60;0.60;;;;;;;;;;5013448;28;20034;-84
2023/04/13 02:00:38;;;;;;;0.98;0.57;;;;;;;;;;5013653;28;20108;-83
2023/04/13 02:03:06;;;;;;;0.70;0.70;;;;;;;;;;5016290;28;20021;-84
2023/04/13 02:05:35;;;;;;;0.77;0.77;;;;;;;;;;5017650;28;20444;-84
2023/04/13 02:08:04;;;;;;;2.15;0.80;;;;;;;;;;5016551;28;20093;-83
2023/04/13 02:10:36;;;;;;;1.27;0.60;;;;;;;;;;5017789;28;20041;-83
2023/04/13 02:13:06;;;;;;;0.68;0.68;;;;;;;;;;5033416;28;20017;-82
2023/04/13 02:15:36;;;;;;;2.42;0.95;;;;;;;;;;5043561;28;20032;-83
2023/04/13 02:18:05;;;;;;;0.57;0.57;;;;;;;;;;5018379;28;20832;-83
2023/04/13 02:20:41;;;;;;;4.97;0.80;;;;;;;;;;5019809;28;20037;-83
2023/04/13 02:23:07;;;;;;;1.95;0.68;;;;;;;;;;5029735;28;20153;-83
2023/04/13 02:25:33;;;;;;;3.45;1.20;;;;;;;;;;5017012;28;20069;-84
2023/04/13 02:27:58;;;;;;;4.03;1.75;;;;;;;;;;5016520;28;20436;-82
2023/04/13 02:30:24;;;;;;;13.77;2.40;;;;;;;;;;5017185;28;20048;-83
2023/04/13 02:32:52;;;;;;;8.48;3.65;;;;;;;;;;5017516;28;20117;-83
2023/04/13 02:35:19;;;;;;;7.15;3.60;;;;;;;;;;5014731;28;20476;-83
2023/04/13 02:37:44;;;;;;;7.05;3.20;;;;;;;;;;5014215;28;20559;-83
2023/04/13 02:40:10;;;;;;;5.32;2.15;;;;;;;;;;5015099;28;20022;-82
2023/04/13 02:42:36;;;;;;;1.58;1.05;;;;;;;;;;5014772;28;20459;-84
2023/04/13 02:45:03;;;;;;;1.73;1.00;;;;;;;;;;5017387;28;20517;-84
2023/04/13 02:47:28;;;;;;;1.25;0.93;;;;;;;;;;5015020;28;20382;-84
2023/04/13 02:49:54;;;;;;;0.80;0.80;;;;;;;;;;5016009;28;20029;-84
2023/04/13 02:52:20;;;;;;;3.67;1.05;;;;;;;;;;5032208;28;20513;-83
2023/04/13 02:54:46;;;;;;;0.80;0.60;;;;;;;;;;5013902;28;20112;-83
2023/04/13 02:57:12;;;;;;;1.05;0.80;;;;;;;;;;5031310;28;20111;-84
2023/04/13 02:59:39;;;;;;;0.68;0.63;;;;;;;;;;5014598;28;20034;-83
2023/04/13 03:02:05;;;;;;;2.90;0.95;;;;;;;;;;5015696;28;20048;-84
2023/04/13 03:04:31;;;;;;;3.85;0.82;;;;;;;;;;5014204;28;20442;-84
2023/04/13 03:06:57;;;;;;;0.82;0.80;;;;;;;;;;5031033;28;20026;-84
2023/04/13 03:09:24;;;;;;;0.60;0.60;;;;;;;;;;5016896;28;20026;-82
2023/04/13 03:11:49;;;;;;;0.60;0.60;;;;;;;;;;5021945;28;20068;-83
2023/04/13 03:14:19;;;;;;;0.93;0.73;;;;;;;;;;5016018;28;20394;-84
2023/04/13 03:16:45;;;;;;;2.55;0.77;;;;;;;;;;5015983;28;20037;-83
2023/04/13 03:19:10;;;;;;;1.70;0.93;;;;;;;;;;5021949;28;20029;-83
2023/04/13 03:21:36;;;;;;;0.60;0.60;;;;;;;;;;5029919;28;20206;-81
2023/04/13 03:24:01;;;;;;;2.03;0.60;;;;;;;;;;5048378;28;20073;-81
2023/04/13 03:26:26;;;;;;;0.90;0.90;;;;;;;;;;5058630;28;20765;-83
2023/04/13 03:28:52;;;;;;;1.85;0.70;;;;;;;;;;5018222;28;20566;-83
2023/04/13 03:31:17;;;;;;;3.42;0.40;;;;;;;;;;5033844;28;20029;-84
2023/04/13 03:33:43;;;;;;;1.65;0.82;;;;;;;;;;5033105;28;20103;-83
2023/04/13 03:36:09;;;;;;;0.52;0.52;;;;;;;;;;5030928;28;20036;-85
2023/04/13 03:38:35;;;;;;;2.92;0.73;;;;;;;;;;5008743;28;20069;-83
2023/04/13 03:41:00;;;;;;;3.30;0.75;;;;;;;;;;5015402;28;20025;-83
2023/04/13 03:43:26;;;;;;;0.60;0.60;;;;;;;;;;5014924;28;20034;-83
2023/04/13 03:45:51;;;;;;;0.70;0.70;;;;;;;;;;5015343;28;20021;-87
2023/04/13 03:48:17;;;;;;;0.50;0.50;;;;;;;;;;5018578;28;20065;-85
2023/04/13 03:50:42;;;;;;;0.65;0.65;;;;;;;;;;5026387;28;20093;-83
2023/04/13 03:53:07;;;;;;;5.50;1.05;;;;;;;;;;5029832;28;20033;-83
2023/04/13 03:55:32;;;;;;;1.85;0.85;;;;;;;;;;5015616;28;20101;-83
2023/04/13 03:57:58;;;;;;;0.35;0.35;;;;;;;;;;5015602;28;20053;-81
2023/04/13 04:00:23;;;;;;;0.60;0.60;;;;;;;;;;5015525;28;20030;-84
2023/04/13 04:02:48;;;;;;;3.53;1.05;;;;;;;;;;5014606;28;20450;-84
2023/04/13 04:05:15;;;;;;;1.27;0.93;;;;;;;;;;5013549;28;20486;-84
2023/04/13 04:07:40;;;;;;;0.82;0.82;;;;;;;;;;5018009;28;20109;-84
2023/04/13 04:10:06;;;;;;;2.90;0.88;;;;;;;;;;5017624;28;20045;-84
2023/04/13 04:12:32;;;;;;;0.68;0.68;;;;;;;;;;5020060;28;20144;-84
2023/04/13 04:14:57;;;;;;;0.68;0.68;;;;;;;;;;5020647;28;20093;-84
2023/04/13 04:17:22;;;;;;;2.97;0.95;;;;;;;;;;5018113;28;20044;-84
2023/04/13 04:19:48;;;;;;;0.60;0.60;;;;;;;;;;5034236;28;20026;-83
2023/04/13 04:22:13;;;;;;;0.80;0.80;;;;;;;;;;5039341;28;20029;-84
2023/04/13 04:24:38;;;;;;;0.75;0.75;;;;;;;;;;5029764;28;20034;-84
2023/04/13 04:27:04;;;;;;;0.85;0.57;;;;;;;;;;5019169;28;20049;-85
2023/04/13 04:29:33;;;;;;;1.08;1.02;;;;;;;;;;5017680;28;20121;-83
2023/04/13 04:32:03;;;;;;;0.80;0.63;;;;;;;;;;5017746;28;20516;-84
2023/04/13 04:34:28;;;;;;;0.60;0.60;;;;;;;;;;5016951;28;20168;-84
2023/04/13 04:36:54;;;;;;;1.30;1.20;;;;;;;;;;5017867;28;20128;-83
2023/04/13 04:39:20;;;;;;;1.13;0.70;;;;;;;;;;5016258;28;20026;-84
2023/04/13 04:41:47;;;;;;;1.05;0.70;;;;;;;;;;5017941;28;20029;-84
2023/04/13 04:44:15;;;;;;;0.60;0.60;;;;;;;;;;5016666;28;20054;-84
2023/04/13 04:46:42;;;;;;;1.65;1.00;;;;;;;;;;5019159;28;20014;-83
2023/04/13 04:49:08;;;;;;;2.83;1.15;;;;;;;;;;5026453;28;20494;-83
2023/04/13 04:51:34;;;;;;;0.70;0.65;;;;;;;;;;5036176;28;20120;-83
2023/04/13 04:54:01;;;;;;;1.10;0.60;;;;;;;;;;5021470;28;20490;-83
2023/04/13 04:56:26;;;;;;;3.40;0.98;;;;;;;;;;5018315;28;20033;-83
2023/04/13 04:58:51;;;;;;;1.42;0.82;;;;;;;;;;5019343;28;20045;-83
2023/04/13 05:01:21;;;;;;;2.58;0.70;;;;;;;;;;5020479;28;20040;-82
2023/04/13 05:03:46;;;;;;;2.65;0.68;;;;;;;;;;5025212;28;20086;-83
2023/04/13 05:06:12;;;;;;;2.40;0.52;;;;;;;;;;5025053;28;20028;-82
2023/04/13 05:08:37;;;;;;;1.00;1.00;;;;;;;;;;5026034;28;20049;-81
2023/04/13 05:11:06;;;;;;;0.55;0.55;;;;;;;;;;5023869;28;20044;-83
2023/04/13 05:13:31;;;;;;;0.85;0.70;;;;;;;;;;5018935;28;20098;-83
2023/04/13 05:15:56;;;;;;;5.88;0.85;;;;;;;;;;5023088;28;20057;-83
2023/04/13 05:18:22;;;;;;;0.95;0.57;;;;;;;;;;5018474;28;20045;-83
2023/04/13 05:20:47;;;;;;;3.08;0.80;;;;;;;;;;5037791;28;20140;-83
2023/04/13 05:23:12;;;;;;;2.60;0.90;;;;;;;;;;5018890;28;20022;-82
2023/04/13 05:25:38;;;;;;;0.77;0.77;;;;;;;;;;5017374;28;20053;-83
2023/04/13 05:28:04;;;;;;;0.90;0.70;;;;;;;;;;5019409;28;20437;-83
2023/04/13 05:30:29;;;;;;;1.38;0.90;;;;;;;;;;5020784;28;20026;-83
2023/04/13 05:32:55;;;;;;;1.55;0.98;;;;;;;;;;5020017;28;20026;-81
2023/04/13 05:35:22;;;;;;;6.22;1.20;;;;;;;;;;5020224;28;20026;-83
2023/04/13 05:37:48;;;;;;;3.13;0.93;;;;;;;;;;5020736;28;20083;-83
2023/04/13 05:40:13;;;;;;;0.90;0.60;;;;;;;;;;5019702;28;20029;-82
2023/04/13 05:42:42;;;;;;;1.50;0.80;;;;;;;;;;5026822;28;20027;-83
2023/04/13 05:45:09;;;;;;;10.88;1.50;;;;;;;;;;5019969;28;20029;-83
2023/04/13 05:47:35;;;;;;;6.25;0.95;;;;;;;;;;5017157;28;20068;-82
2023/04/13 05:50:00;;;;;;;1.25;0.80;;;;;;;;;;5023234;28;20022;-82
2023/04/13 05:52:26;;;;;;;2.58;0.73;;;;;;;;;;5022405;28;20010;-82
2023/04/13 06:01:39;;;;;;;3.15;1.58;;;;;;;;;;5010455;28;20048;-82
2023/04/13 06:04:05;;;;;;;0.52;0.52;;;;;;;;;;5020175;28;20025;-81
2023/04/13 06:06:31;;;;;;;1.77;0.90;;;;;;;;;;5021876;28;20397;-81
2023/04/13 06:08:56;;;;;;;2.03;0.75;;;;;;;;;;5015978;28;20406;-79
2023/04/13 06:11:24;;;;;;;4.38;1.00;;;;;;;;;;5012411;28;20022;-83
2023/04/13 06:13:50;;;;;;;0.70;0.63;;;;;;;;;;5016525;28;20026;-83
2023/04/13 06:16:16;;;;;;;2.10;0.90;;;;;;;;;;5018055;28;20026;-83
2023/04/13 06:18:42;;;;;;;2.17;0.70;;;;;;;;;;5015522;28;20033;-84
2023/04/13 06:21:07;;;;;;;2.25;0.93;;;;;;;;;;5021479;28;20072;-83
2023/04/13 06:23:33;;;;;;;5.30;1.15;;;;;;;;;;5011699;28;20478;-85
2023/04/13 06:25:58;;;;;;;6.03;1.48;;;;;;;;;;5014724;28;20025;-83
2023/04/13 06:28:27;;;;;;;3.00;1.00;;;;;;;;;;5018520;28;20474;-83
2023/04/13 06:30:53;;;;;;;5.10;1.27;;;;;;;;;;5016950;28;20026;-83
2023/04/13 06:33:19;;;;;;;2.17;1.23;;;;;;;;;;5017294;28;20034;-83
2023/04/13 06:35:44;;;;;;;1.90;1.00;;;;;;;;;;5019032;28;20379;-84
2023/04/13 06:38:10;;;;;;;1.42;0.82;;;;;;;;;;5016299;28;20029;-83
2023/04/13 06:40:36;;;;;;;2.17;1.05;;;;;;;;;;5015708;28;20026;-83
2023/04/13 06:43:01;;;;;;;5.88;0.93;;;;;;;;;;5018119;28;20021;-82
2023/04/13 06:45:26;;;;;;;3.65;1.02;;;;;;;;;;5034710;28;20021;-82
2023/04/13 06:47:53;;;;;;;5.47;1.25;;;;;;;;;;5026819;28;20014;-84
2023/04/13 06:50:18;;;;;;;2.63;0.80;;;;;;;;;;5027221;28;20026;-82
2023/04/13 06:52:45;;;;;;;3.85;0.90;;;;;;;;;;5035219;28;20493;-82
2023/04/13 06:55:11;;;;;;;6.78;0.77;;;;;;;;;;5021687;28;20022;-82
2023/04/13 06:57:37;;;;;;;2.65;0.98;;;;;;;;;;5019268;28;20061;-83
2023/04/13 07:00:05;;;;;;;2.55;0.70;;;;;;;;;;5019486;28;20026;-82
2023/04/13 07:02:32;;;;;;;1.80;0.90;;;;;;;;;;5017711;28;20108;-83
2023/04/13 07:04:57;;;;;;;0.65;0.65;;;;;;;;;;5016782;28;20088;-84
2023/04/13 07:07:22;;;;;;;2.33;0.85;;;;;;;;;;5019121;28;20544;-83
2023/04/13 07:09:48;;;;;;;3.10;0.77;;;;;;;;;;5012588;28;20103;-83
2023/04/13 07:12:13;;;;;;;6.18;0.80;;;;;;;;;;5019420;28;20114;-83
2023/04/13 07:14:40;;;;;;;2.03;0.68;;;;;;;;;;5020598;28;20048;-83
2023/04/13 07:17:05;;;;;;;3.13;1.02;;;;;;;;;;5034680;28;20013;-84
2023/04/13 07:19:32;;;;;;;5.07;1.23;;;;;;;;;;5030086;28;20037;-82
2023/04/13 07:21:58;;;;;;;4.00;1.40;;;;;;;;;;5030558;28;20488;-83
2023/04/13 07:28:32;;;;;;;0.52;0.50;;;;;;;;;;5035747;28;20056;-82
2023/04/13 07:31:24;;;;;;;1.47;0.80;;;;;;;;;;5021870;28;20034;-81
2023/04/13 07:33:53;;;;;;;2.15;0.65;;;;;;;;;;5028054;28;20034;-83
2023/04/13 07:37:06;;;;;;;2.10;0.93;;;;;;;;;;5016556;28;20026;-82
2023/04/13 07:39:50;;;;;;;4.32;0.90;;;;;;;;;;4991703;28;20053;-82
2023/04/13 07:42:15;;;;;;;4.72;1.15;;;;;;;;;;5026034;28;20041;-82
2023/04/13 07:44:47;;;;;;;2.80;1.05;;;;;;;;;;5029867;28;20026;-82
2023/04/13 07:47:15;;;;;;;5.75;1.20;;;;;;;;;;5034025;28;20064;-81
2023/04/13 07:50:21;;;;;;;1.85;1.02;;;;;;;;;;5016782;28;20478;-82
2023/04/13 07:57:02;;;;;;;;;;;;;;;;;;;;;
2023/04/13 08:00:21;;;;;;;;;;;;;;;;;;;;;
2023/04/13 08:11:24;;;;;;;;;;;;;;;;;;;;;
2023/04/13 08:15:02;;;;;;;2.83;0.75;;;;;;;;;;4924221;29;20107;-82
2023/04/13 08:20:34;;;;;;;2.90;1.08;;;;;;;;;;5042930;23;20080;-83
2023/04/13 08:23:31;;;;;;;3.80;1.38;;;;;;;;;;5034868;28;20124;-81
2023/04/13 08:26:04;;;;;;;2.67;1.20;;;;;;;;;;5035844;28;20021;-81
2023/04/13 08:28:58;;;;;;;1.92;0.90;;;;;;;;;;5030495;28;20048;-82
2023/04/13 08:31:49;;;;;;;1.60;1.10;;;;;;;;;;5034592;28;20505;-81
2023/04/13 08:35:05;;;;;;;4.25;1.10;;;;;;;;;;5022762;28;20495;-81
2023/04/13 08:38:12;;;;;;;3.35;1.23;;;;;;;;;;5033930;28;20052;-80
2023/04/13 08:41:18;;;;;;;;;;;;;;;;;;;;;
2023/04/13 08:43:51;;;;;;;4.53;1.08;;;;;;;;;;5035650;28;20092;-81
2023/04/13 08:50:09;;;;;;;6.18;1.60;;;;;;;;;;5006882;28;20494;-82
2023/04/13 08:56:15;;;;;;;4.65;1.48;;;;;;;;;;5038637;28;20631;-81
2023/04/13 08:59:08;;;;;;;6.32;1.00;;;;;;;;;;5037872;28;20477;-82
2023/04/13 09:12:39;;;;;;;4.30;1.10;;;;;;;;;;5017515;28;20029;-82
2023/04/13 09:15:45;;;;;;;;;;;;;;;;;;;;;
2023/04/13 09:26:39;;;;;;;1.45;0.95;;;;;;;;;;4960105;28;20034;-81
2023/04/13 09:29:54;;;;;;;8.18;1.08;;;;;;;;;;4923888;29;20075;-83
2023/04/13 09:36:15;;;;;;;4.50;1.30;;;;;;;;;;4970139;28;20042;-82
2023/04/13 09:38:43;;;;;;;1.17;0.50;;;;;;;;;;4982599;28;21324;-82
2023/04/13 09:41:08;;;;;;;3.30;1.08;;;;;;;;;;5020217;28;20108;-82
2023/04/13 09:44:06;;;;;;;6.72;1.20;;;;;;;;;;5034362;28;20060;-83
2023/04/13 09:52:23;;;;;;;1.85;0.80;;;;;;;;;;5230275;23;20556;-82
2023/04/13 09:54:53;;;;;;;2.20;0.63;;;;;;;;;;5014444;28;20030;-82
2023/04/13 09:57:28;;;;;;;1.50;0.90;;;;;;;;;;5026663;28;20524;-81
2023/04/13 09:59:56;;;;;;;4.55;0.95;;;;;;;;;;5023315;28;20033;-82
2023/04/13 10:02:22;;;;;;;2.13;0.85;;;;;;;;;;5022281;28;20026;-81
2023/04/13 10:04:47;;;;;;;4.78;1.05;;;;;;;;;;5013297;28;20080;-82
2023/04/13 10:07:12;;;;;;;2.67;1.02;;;;;;;;;;5014746;28;20037;-82
2023/04/13 10:09:40;;;;;;;3.03;1.10;;;;;;;;;;5016291;28;20041;-82
2023/04/13 10:12:10;;;;;;;3.85;1.60;;;;;;;;;;5016543;28;20033;-82
2023/04/13 10:14:39;;;;;;;5.22;1.55;;;;;;;;;;5014967;28;20026;-81
2023/04/13 10:17:21;;;;;;;2.35;0.90;;;;;;;;;;5016226;28;20018;-84
2023/04/13 10:19:51;;;;;;;1.08;0.90;;;;;;;;;;5018450;28;20037;-83
2023/04/13 10:22:21;;;;;;;1.40;0.93;;;;;;;;;;5018492;28;20044;-82
2023/04/13 10:24:47;;;;;;;5.13;1.55;;;;;;;;;;5010235;28;20033;-84
2023/04/13 10:27:18;;;;;;;5.10;1.25;;;;;;;;;;5011628;28;20033;-84
2023/04/13 10:29:45;;;;;;;2.13;1.17;;;;;;;;;;5012726;28;20044;-82
2023/04/13 10:32:25;;;;;;;2.75;1.10;;;;;;;;;;5013700;28;20044;-83
2023/04/13 10:34:51;;;;;;;6.30;1.60;;;;;;;;;;5025822;28;20030;-83
2023/04/13 10:37:22;;;;;;;3.40;1.17;;;;;;;;;;5011696;28;20041;-81
2023/04/13 10:39:59;;;;;;;1.45;0.82;;;;;;;;;;5014966;28;20029;-81
2023/04/13 10:42:24;;;;;;;3.78;1.60;;;;;;;;;;5026825;28;20034;-81
2023/04/13 10:44:51;;;;;;;4.00;1.15;;;;;;;;;;5011249;28;20545;-82
2023/04/13 10:47:21;;;;;;;2.75;1.30;;;;;;;;;;5017673;28;20763;-82
2023/04/13 10:49:48;;;;;;;3.00;1.08;;;;;;;;;;5013472;28;20034;-83
2023/04/13 10:52:15;;;;;;;3.70;1.10;;;;;;;;;;5018198;28;20113;-83
2023/04/13 10:54:41;;;;;;;4.82;1.00;;;;;;;;;;5034746;28;20014;-85
2023/04/13 11:00:26;;;;;;;7.90;1.50;;;;;;;;;;5043544;23;20181;-82
2023/04/13 11:02:58;;;;;;;4.03;1.05;;;;;;;;;;5021842;28;20022;-81
2023/04/13 11:05:26;;;;;;;;;;;;;;;;;;5036149;28;20044;-81
2023/04/13 11:07:57;;;;;;;3.60;1.10;;;;;;;;;;5007338;28;19916;-81
2023/04/13 11:10:24;;;;;;;5.78;1.58;;;;;;;;;;5025766;28;20482;-81
2023/04/13 11:12:55;;;;;;;3.25;1.00;;;;;;;;;;5035383;28;20111;-82
2023/04/13 11:15:28;;;;;;;6.05;1.20;;;;;;;;;;5020667;28;20033;-81
2023/04/13 11:18:02;;;;;;;4.45;0.88;;;;;;;;;;5018890;28;20394;-82
2023/04/13 11:20:32;;;;;;;2.33;0.85;;;;;;;;;;5025889;28;20034;-81
2023/04/13 11:23:33;;;;;;;4.13;1.10;;;;;;;;;;5012974;28;20022;-81
2023/04/13 11:26:00;;;;;;;6.68;0.88;;;;;;;;;;5008038;28;20037;-81
2023/04/13 11:28:59;;;;;;;0.90;0.82;;;;;;;;;;5036692;28;20057;-81
2023/04/13 11:31:40;;;;;;;1.08;0.70;;;;;;;;;;5047994;28;20029;-82
2023/04/13 11:34:08;;;;;;;1.60;0.50;;;;;;;;;;5029321;28;20025;-81
2023/04/13 11:37:31;;;;;;;;;;;;;;;;;;;;;
2023/04/13 11:40:46;;;;;;;8.00;1.40;;;;;;;;;;5028659;28;20053;-82
2023/04/13 12:02:30;;;;;;;5.32;1.30;;;;;;;;;;5062599;28;20041;-81
2023/04/13 12:51:25;;;;;;;6.97;0.95;;;;;;;;;;5096330;22;20057;-81
2023/04/13 13:01:09;;;;;;;1.60;1.10;;;;;;;;;;4906478;29;20051;-81
2023/04/13 13:04:08;;;;;;;2.95;1.23;;;;;;;;;;4939135;29;20530;-85
2023/04/13 14:03:48;;;;;;;1.40;0.65;;;;;;;;;;5025005;28;20061;-83
2023/04/13 14:09:33;;;;;;;4.05;0.82;;;;;;;;;;5514317;23;20033;-80
2023/04/13 16:15:06;;;;;;;2.08;1.23;;;;;;;;;;4984510;28;20114;-86
2023/04/13 16:18:17;;;;;;;4.20;1.38;;;;;;;;;;4978843;28;20046;-83
2023/04/13 16:24:36;;;;;;;3.63;1.25;;;;;;;;;;4913797;29;20062;-83
2023/04/13 16:28:00;;;;;;;1.30;1.02;;;;;;;;;;4964432;28;20110;-83
2023/04/13 16:31:14;;;;;;;2.33;1.20;;;;;;;;;;4947286;29;20031;-84
2023/04/13 16:33:59;;;;;;;3.47;1.27;;;;;;;;;;4961853;28;20031;-83
2023/04/13 16:36:54;;;;;;;2.83;1.38;;;;;;;;;;4968022;28;20091;-84
2023/04/13 16:39:20;;;;;;;4.20;1.58;;;;;;;;;;4945308;28;20558;-83
2023/04/13 16:41:46;;;;;;;2.55;1.40;;;;;;;;;;4968463;28;20023;-84
2023/04/13 16:44:11;;;;;;;3.70;0.93;;;;;;;;;;4946700;29;20034;-83
2023/04/13 16:46:36;;;;;;;3.15;1.40;;;;;;;;;;4966473;28;20029;-82
2023/04/13 16:49:02;;;;;;;3.45;1.23;;;;;;;;;;4964587;29;20015;-83
2023/04/13 16:51:30;;;;;;;1.75;1.25;;;;;;;;;;4951749;29;20046;-83
2023/04/13 16:54:16;;;;;;;3.05;1.38;;;;;;;;;;4953298;29;20042;-84
2023/04/13 16:56:42;;;;;;;1.70;1.20;;;;;;;;;;4943482;29;20035;-85
2023/04/13 16:59:07;;;;;;;2.63;1.05;;;;;;;;;;4962807;28;20037;-85
2023/04/13 17:01:33;;;;;;;2.95;1.13;;;;;;;;;;4962748;28;20023;-85
2023/04/13 17:04:02;;;;;;;5.75;1.60;;;;;;;;;;4943781;29;20083;-85
2023/04/13 17:06:27;;;;;;;1.13;1.02;;;;;;;;;;4955329;29;20046;-85
2023/04/13 17:08:52;;;;;;;4.53;1.15;;;;;;;;;;4954340;28;20015;-87
2023/04/13 17:11:18;;;;;;;2.60;1.00;;;;;;;;;;4962689;28;20519;-87
2023/04/13 17:13:43;;;;;;;2.55;1.02;;;;;;;;;;4984801;28;20022;-83
2023/04/13 17:16:09;;;;;;;1.15;0.93;;;;;;;;;;4977030;28;20075;-83
2023/04/13 17:18:34;;;;;;;3.63;1.17;;;;;;;;;;4974528;28;20058;-82
2023/04/13 17:20:59;;;;;;;3.78;1.00;;;;;;;;;;4979003;28;20023;-86
2023/04/13 17:23:25;;;;;;;2.80;0.80;;;;;;;;;;4983052;28;20027;-84
2023/04/13 17:25:51;;;;;;;4.05;1.10;;;;;;;;;;4975493;28;20083;-84
2023/04/13 17:28:17;;;;;;;1.05;0.95;;;;;;;;;;4966059;28;20051;-83
2023/04/13 17:30:42;;;;;;;1.33;1.10;;;;;;;;;;4971233;28;20027;-81
2023/04/13 17:33:08;;;;;;;1.20;0.93;;;;;;;;;;4961302;28;20484;-83
2023/04/13 17:35:33;;;;;;;1.08;0.98;;;;;;;;;;4943589;28;20149;-84
2023/04/13 17:37:59;;;;;;;3.63;1.20;;;;;;;;;;4967599;28;20097;-83
2023/04/13 17:40:25;;;;;;;2.03;0.93;;;;;;;;;;4961640;28;20035;-82
2023/04/13 17:42:50;;;;;;;3.67;1.40;;;;;;;;;;4940718;29;20027;-82
2023/04/13 17:45:18;;;;;;;2.47;1.58;;;;;;;;;;4947285;28;20712;-81
2023/04/13 17:47:44;;;;;;;3.97;1.60;;;;;;;;;;4962207;28;20034;-83
2023/04/13 17:50:10;;;;;;;2.72;1.48;;;;;;;;;;4960256;28;20087;-83
2023/04/13 17:52:36;;;;;;;1.67;1.58;;;;;;;;;;4962892;28;20054;-82
2023/04/13 17:55:01;;;;;;;4.28;1.33;;;;;;;;;;4942553;29;20960;-82
2023/04/13 17:57:28;;;;;;;3.22;1.35;;;;;;;;;;4973340;28;20022;-82
2023/04/13 17:59:54;;;;;;;1.27;1.17;;;;;;;;;;4961057;28;20062;-82
2023/04/13 18:02:19;;;;;;;2.50;1.42;;;;;;;;;;4956301;28;20027;-83
2023/04/13 18:04:47;;;;;;;3.33;1.80;;;;;;;;;;4959410;28;20031;-83
2023/04/13 18:07:13;;;;;;;2.10;1.70;;;;;;;;;;4959386;28;20032;-83
2023/04/13 18:09:39;;;;;;;4.22;2.05;;;;;;;;;;4941522;28;20034;-83
2023/04/13 18:12:05;;;;;;;3.80;1.75;;;;;;;;;;4945792;28;20019;-83
2023/04/13 18:14:31;;;;;;;5.20;1.83;;;;;;;;;;4950225;28;20101;-82
2023/04/13 18:16:57;;;;;;;5.53;2.53;;;;;;;;;;4965022;28;20023;-82
2023/04/13 18:19:22;;;;;;;3.10;1.73;;;;;;;;;;4961450;28;20556;-83
2023/04/13 18:21:48;;;;;;;2.95;1.88;;;;;;;;;;4948530;29;20032;-82
2023/04/13 18:24:13;;;;;;;1.77;1.35;;;;;;;;;;4943184;29;20384;-82
2023/04/13 18:26:38;;;;;;;2.72;1.77;;;;;;;;;;4947514;28;20042;-84
2023/04/13 18:29:04;;;;;;;9.48;3.30;;;;;;;;;;4957166;28;20015;-84
2023/04/13 18:31:29;;;;;;;12.10;3.65;;;;;;;;;;4955915;28;20027;-80
2023/04/13 18:33:55;;;;;;;6.97;3.53;;;;;;;;;;4951328;28;20034;-82
2023/04/13 18:36:20;;;;;;;5.53;1.95;;;;;;;;;;4972664;28;20023;-85
2023/04/13 18:38:45;;;;;;;2.42;1.58;;;;;;;;;;4964386;28;20024;-83
2023/04/13 18:41:11;;;;;;;5.65;2.35;;;;;;;;;;4967128;28;20095;-82
2023/04/13 18:43:37;;;;;;;3.00;2.30;;;;;;;;;;4953201;28;20026;-83
2023/04/13 18:46:02;;;;;;;4.43;2.70;;;;;;;;;;4950473;29;20105;-82
2023/04/13 18:48:29;;;;;;;4.90;2.70;;;;;;;;;;4966937;28;20383;-82
2023/04/13 18:50:54;;;;;;;3.95;2.40;;;;;;;;;;4944239;29;20055;-83
2023/04/13 18:53:19;;;;;;;5.50;2.35;;;;;;;;;;4968532;28;20406;-82
2023/04/13 18:55:49;;;;;;;3.67;2.63;;;;;;;;;;4962903;29;20110;-82
2023/04/13 18:58:15;;;;;;;7.28;2.63;;;;;;;;;;4952489;29;20042;-82
2023/04/13 19:00:41;;;;;;;4.30;2.42;;;;;;;;;;4942721;29;20034;-82
2023/04/13 19:03:06;;;;;;;4.82;2.15;;;;;;;;;;4967434;28;20022;-83
2023/04/13 19:05:34;;;;;;;3.20;2.20;;;;;;;;;;4963243;28;20027;-82
2023/04/13 19:08:02;;;;;;;3.35;2.15;;;;;;;;;;4970151;28;20066;-82
2023/04/13 19:10:28;;;;;;;4.97;2.20;;;;;;;;;;4974717;28;20023;-83
2023/04/13 19:12:53;;;;;;;3.78;1.98;;;;;;;;;;4944909;29;20464;-82
2023/04/13 19:15:19;;;;;;;2.95;2.40;;;;;;;;;;4948495;28;20031;-83
2023/04/13 19:17:45;;;;;;;5.03;2.38;;;;;;;;;;4966516;28;20083;-82
2023/04/13 19:20:11;;;;;;;4.03;2.30;;;;;;;;;;4970754;28;20053;-82
2023/04/13 19:22:37;;;;;;;6.65;2.55;;;;;;;;;;4952113;28;20035;-82
2023/04/13 19:25:03;;;;;;;7.03;3.13;;;;;;;;;;4962583;28;20073;-82
2023/04/13 19:27:29;;;;;;;5.70;2.88;;;;;;;;;;4971028;28;20075;-83
2023/04/13 19:29:55;;;;;;;3.65;2.45;;;;;;;;;;4958390;28;20114;-82
2023/04/13 19:32:23;;;;;;;4.30;1.85;;;;;;;;;;4973644;28;20404;-82
2023/04/13 19:34:49;;;;;;;1.80;1.65;;;;;;;;;;4966686;28;20526;-82
2023/04/13 19:37:15;;;;;;;5.15;2.42;;;;;;;;;;4958912;28;20031;-82
2023/04/13 19:39:41;;;;;;;4.03;2.13;;;;;;;;;;4953300;28;20031;-81
2023/04/13 19:42:06;;;;;;;5.60;2.40;;;;;;;;;;4944566;29;20031;-82
2023/04/13 19:44:32;;;;;;;5.05;2.85;;;;;;;;;;4945089;28;20094;-83
2023/04/13 19:46:57;;;;;;;7.90;2.40;;;;;;;;;;4960099;29;20027;-82
2023/04/13 19:49:22;;;;;;;4.28;2.60;;;;;;;;;;4968427;28;20019;-82
2023/04/13 19:51:48;;;;;;;7.40;2.90;;;;;;;;;;4958725;28;20026;-83
2023/04/13 19:54:13;;;;;;;3.50;2.40;;;;;;;;;;4951154;28;20069;-84
2023/04/13 19:56:38;;;;;;;2.95;2.00;;;;;;;;;;4951577;28;20039;-83
2023/04/13 19:59:05;;;;;;;6.18;2.30;;;;;;;;;;4962083;28;20488;-81
2023/04/13 20:01:32;;;;;;;2.22;2.00;;;;;;;;;;4964091;28;20031;-84
2023/04/13 20:03:58;;;;;;;2.20;1.85;;;;;;;;;;4947714;29;20027;-84
2023/04/13 20:06:24;;;;;;;2.53;2.05;;;;;;;;;;4961119;28;20034;-84
2023/04/13 20:08:49;;;;;;;2.78;2.08;;;;;;;;;;4952672;29;20021;-84
2023/04/13 20:11:15;;;;;;;2.92;1.98;;;;;;;;;;4967740;29;20019;-87
2023/04/13 20:13:41;;;;;;;6.53;2.28;;;;;;;;;;4944424;28;20027;-84
2023/04/13 20:16:06;;;;;;;3.25;2.05;;;;;;;;;;4964168;29;20019;-84
2023/04/13 20:18:32;;;;;;;6.13;2.28;;;;;;;;;;4965352;29;20315;-84
2023/04/13 20:21:01;;;;;;;5.30;2.42;;;;;;;;;;4960113;29;20027;-83
2023/04/13 20:23:28;;;;;;;6.22;2.92;;;;;;;;;;4943151;28;20027;-84
2023/04/13 20:25:54;;;;;;;4.32;2.78;;;;;;;;;;4943648;29;20053;-84
2023/04/13 20:28:20;;;;;;;6.60;2.63;;;;;;;;;;4959049;28;20586;-84
2023/04/13 20:30:45;;;;;;;2.70;1.90;;;;;;;;;;4959478;28;20077;-84